EPKT Airport Information

Runway Information
Runway 09 Length 9183 ft width 195 ft
Elevation 970 ft Threshold 0 ft Heading 90
Runway 27 Length 9183 ft Width 195 ft
Elevation 994 ft Threshold 0 ft Heading 270
Airport Frequencies
Type APP Name APP Frequency 121.075 MHZ
Type GCCD Name HANDLING Frequency 131.45 MHZ
Type TWR Name TWR Frequency 129.25 MHZ
Airport Navaids
Type NDB Name Katowice Frequency 285 KHZ
Airport Weather Information & NOTAM
ADDS - METARS form results

(0826 UTC 17 November 2018)
Data provider http://aviationweather.gov/metar/data/
 
METAR text: EPKT 170800Z 06010KT CAVOK M01/M04 Q1036
Conditions at: EPKT (KATOWICE/PYRZOWI, PL) observed 0800 UTC 17 November 2018
Temperature: -1.0°C (30°F)
Dewpoint: -4.0°C (25°F) [RH = 80%]
Pressure (altimeter): 30.59 inches Hg (1036.0 mb)
Winds: from the ENE (60 degrees) at 12 MPH (10 knots; 5.1 m/s)
Visibility: 6 or more miles (10+ km)
Ceiling: ceiling and visibility are OK
Clouds: unknown
Weather: no significant weather observed at this time

METAR text: EPKT 170730Z 06008KT CAVOK M02/M04 Q1036
Conditions at: EPKT (KATOWICE/PYRZOWI, PL) observed 0730 UTC 17 November 2018
Temperature: -2.0°C (28°F)
Dewpoint: -4.0°C (25°F) [RH = 86%]
Pressure (altimeter): 30.59 inches Hg (1036.0 mb)
Winds: from the ENE (60 degrees) at 9 MPH (8 knots; 4.1 m/s)
Visibility: 6 or more miles (10+ km)
Ceiling: ceiling and visibility are OK
Clouds: unknown
Weather: no significant weather observed at this time

Forecast for: EPKT (KATOWICE/PYRZOWI, PL)
Text: TAF EPKT 170530Z 1706/1806 04008KT CAVOK
Forecast period: 0600 UTC 17 November 2018 to 0600 UTC 18 November 2018
Forecast type: FROM: standard forecast or significant change
Winds: from the NE (40 degrees) at 9 MPH (8 knots; 4.1 m/s)
Visibility: 6 or more miles 10+ km)
Ceiling: unknown
Clouds: missing
Weather: NSW  (no significant weather)